Terminal Aerodrome Forecast
Issued by NWS

Home | Current Version | Previous Version | Text Only | Print | Product List | Glossary Off
Versions: 1 2 3 4 5 6 7 8 9 10 11 12 13 14 15 16 17 18 19 20

000
FTUS43 KABR 262300
TAFMBG
TAF
KMBG 262338Z 2700/2724 32005KT P6SM SCT250
     FM270400 VRB03KT 3SM BR SCT250
     FM270600 12005KT 1SM BR SKC
     FM271500 18013KT P6SM SKC=

USA.gov is the U.S. government's official web portal to all federal, state and local government web resources and services.